Time;durP1;ratioP1;P1;durP2;ratioP2;P2;SDS_P1;SDS_P2;PMS_P1;PMS_P2;Temp;Humidity;BMP_temperature;BMP_pressure;BME280_temperature;BME280_humidity;BME280_pressure;Samples;Min_cycle;Max_cycle;Signal;HPM_P1;HPM_P2
2023/05/26 00:00:07;;;;;;;22.15;5.50;;;7.60;99.90;;;;;;5016798;28;20048;-84
2023/05/26 00:02:39;;;;;;;30.67;6.07;;;7.60;99.90;;;;;;4990578;28;20099;-84
2023/05/26 00:05:08;;;;;;;26.13;5.45;;;7.50;99.90;;;;;;5021085;28;20091;-84
2023/05/26 00:07:40;;;;;;;19.40;5.22;;;7.50;99.90;;;;;;5006269;28;20128;-84
2023/05/26 00:10:07;;;;;;;26.60;5.97;;;7.50;99.90;;;;;;5009525;28;20036;-84
2023/05/26 00:12:33;;;;;;;27.27;6.47;;;7.40;99.90;;;;;;4989032;28;20651;-84
2023/05/26 00:14:59;;;;;;;23.95;5.93;;;7.40;99.90;;;;;;4998646;28;20030;-84
2023/05/26 00:17:25;;;;;;;27.73;5.70;;;7.40;99.90;;;;;;5002091;28;20516;-84
2023/05/26 00:19:52;;;;;;;32.63;5.20;;;7.40;99.90;;;;;;5023486;28;20549;-83
2023/05/26 00:22:18;;;;;;;26.77;6.13;;;7.50;99.90;;;;;;4995897;28;20064;-84
2023/05/26 00:24:45;;;;;;;26.00;5.93;;;7.40;99.90;;;;;;5014513;28;20120;-84
2023/05/26 00:27:11;;;;;;;28.23;5.53;;;7.30;99.90;;;;;;5000269;28;20637;-83
2023/05/26 00:29:37;;;;;;;27.27;5.78;;;7.30;99.90;;;;;;5010180;28;20049;-84
2023/05/26 00:32:04;;;;;;;34.03;5.65;;;7.30;99.90;;;;;;5007651;28;20034;-83
2023/05/26 00:34:30;;;;;;;22.42;5.10;;;7.20;99.90;;;;;;4997987;28;20038;-84
2023/05/26 00:36:55;;;;;;;22.83;5.82;;;7.20;99.90;;;;;;4984028;28;20041;-84
2023/05/26 00:39:21;;;;;;;24.83;5.90;;;7.20;99.90;;;;;;4991839;28;20128;-84
2023/05/26 00:41:47;;;;;;;27.85;5.30;;;7.30;99.90;;;;;;4997221;28;20049;-84
2023/05/26 00:44:13;;;;;;;25.33;5.93;;;7.10;99.90;;;;;;5005218;28;20046;-84
2023/05/26 00:46:40;;;;;;;25.88;5.68;;;7.10;99.90;;;;;;5000251;28;20037;-85
2023/05/26 00:49:05;;;;;;;30.42;6.43;;;7.10;99.90;;;;;;5018968;28;20120;-84
2023/05/26 00:51:32;;;;;;;30.45;5.88;;;7.10;99.90;;;;;;5002262;28;20128;-84
2023/05/26 00:53:59;;;;;;;22.90;5.82;;;7.00;99.90;;;;;;4977428;28;20561;-84
2023/05/26 00:56:27;;;;;;;26.92;6.13;;;7.00;99.90;;;;;;4984992;28;20381;-84
2023/05/26 00:58:54;;;;;;;25.92;6.07;;;7.00;99.90;;;;;;4998021;28;20040;-84
2023/05/26 01:01:20;;;;;;;34.00;6.40;;;7.00;99.90;;;;;;5017882;28;20160;-84
2023/05/26 01:03:47;;;;;;;29.58;6.47;;;7.00;99.90;;;;;;4973115;28;20626;-83
2023/05/26 01:06:13;;;;;;;22.42;6.13;;;7.00;99.90;;;;;;4997497;28;20569;-84
2023/05/26 01:08:39;;;;;;;29.52;6.85;;;7.00;99.90;;;;;;5005665;28;20038;-84
2023/05/26 01:11:22;;;;;;;26.20;5.20;;;7.00;99.90;;;;;;4990855;28;20036;-84
2023/05/26 01:13:54;;;;;;;29.92;5.82;;;6.90;99.90;;;;;;4995570;28;20034;-84
2023/05/26 01:16:27;;;;;;;33.60;6.20;;;6.90;99.90;;;;;;5001309;28;20050;-84
2023/05/26 01:19:28;;;;;;;23.38;5.88;;;6.90;99.90;;;;;;5020471;28;20289;-83
2023/05/26 01:22:13;;;;;;;26.25;5.75;;;6.80;99.90;;;;;;4993760;28;20044;-84
2023/05/26 01:24:58;;;;;;;27.75;5.47;;;6.80;99.90;;;;;;4993058;28;20049;-84
2023/05/26 01:27:45;;;;;;;22.35;6.25;;;6.80;99.90;;;;;;4996823;28;20407;-84
2023/05/26 01:30:11;;;;;;;25.60;6.45;;;6.80;99.90;;;;;;5011847;28;20037;-83
2023/05/26 01:32:37;;;;;;;26.02;5.50;;;7.10;99.90;;;;;;4983514;28;20049;-84
2023/05/26 01:35:03;;;;;;;27.63;6.28;;;6.80;99.90;;;;;;4964482;28;20053;-83
2023/05/26 01:37:29;;;;;;;25.33;7.68;;;6.70;99.90;;;;;;4984390;28;20038;-83
2023/05/26 01:39:54;;;;;;;25.88;5.47;;;6.70;99.90;;;;;;4965237;28;20053;-84
2023/05/26 01:42:33;;;;;;;33.08;7.03;;;7.00;99.90;;;;;;4947122;28;20052;-84
2023/05/26 01:45:21;;;;;;;43.78;6.60;;;6.60;99.90;;;;;;4999637;28;20065;-84
2023/05/26 01:47:51;;;;;;;32.08;5.85;;;6.60;99.90;;;;;;4998536;28;20038;-84
2023/05/26 01:50:22;;;;;;;28.27;6.43;;;6.60;99.90;;;;;;4994061;28;20036;-84
2023/05/26 01:52:51;;;;;;;30.75;5.75;;;6.50;99.90;;;;;;4977787;28;20514;-84
2023/05/26 01:55:21;;;;;;;32.28;6.22;;;6.50;99.90;;;;;;4982912;28;20494;-83
2023/05/26 01:57:48;;;;;;;26.75;6.30;;;6.50;99.90;;;;;;5001001;28;20124;-84
2023/05/26 02:00:14;;;;;;;29.05;5.65;;;6.50;99.90;;;;;;4963065;28;20053;-83
2023/05/26 02:02:39;;;;;;;22.50;5.68;;;6.50;99.90;;;;;;4991439;28;20465;-83
2023/05/26 02:05:06;;;;;;;30.05;7.00;;;6.40;99.90;;;;;;5014682;28;20056;-83
2023/05/26 02:07:34;;;;;;;23.40;6.30;;;6.40;99.90;;;;;;5010094;28;20038;-83
2023/05/26 02:10:00;;;;;;;34.08;6.43;;;6.40;99.90;;;;;;4956811;28;20042;-83
2023/05/26 02:12:26;;;;;;;27.65;5.85;;;6.40;99.90;;;;;;4977779;28;20506;-83
2023/05/26 02:14:51;;;;;;;24.42;6.63;;;6.50;99.90;;;;;;4970490;28;20037;-83
2023/05/26 02:17:18;;;;;;;26.95;5.80;;;6.50;99.90;;;;;;4960639;28;20053;-83
2023/05/26 02:19:44;;;;;;;30.08;6.70;;;6.40;99.90;;;;;;4992340;28;20038;-83
2023/05/26 02:22:12;;;;;;;33.13;6.93;;;6.40;99.90;;;;;;4989316;28;20749;-83
2023/05/26 02:24:38;;;;;;;27.60;6.05;;;6.30;99.90;;;;;;4962242;28;20046;-83
2023/05/26 02:27:04;;;;;;;24.27;5.97;;;6.50;99.90;;;;;;4979988;28;20048;-83
2023/05/26 02:29:29;;;;;;;27.63;6.15;;;6.20;99.90;;;;;;4983196;28;20368;-83
2023/05/26 02:31:55;;;;;;;29.88;6.43;;;6.30;99.90;;;;;;4974337;28;20066;-83
2023/05/26 02:34:21;;;;;;;31.30;6.65;;;6.20;99.90;;;;;;4966811;28;20034;-83
2023/05/26 02:36:46;;;;;;;23.15;5.47;;;6.20;99.90;;;;;;4997806;28;20133;-83
2023/05/26 02:39:12;;;;;;;23.15;6.75;;;6.20;99.90;;;;;;4955727;28;20037;-83
2023/05/26 02:41:38;;;;;;;35.22;7.10;;;6.20;99.90;;;;;;4972022;28;20041;-83
2023/05/26 02:44:04;;;;;;;22.35;6.18;;;6.20;99.90;;;;;;4969742;28;20053;-83
2023/05/26 02:46:30;;;;;;;27.02;6.10;;;6.20;99.90;;;;;;4953541;28;20120;-83
2023/05/26 02:48:55;;;;;;;29.13;6.45;;;6.20;99.90;;;;;;4985597;28;20036;-83
2023/05/26 02:51:21;;;;;;;24.13;6.63;;;6.70;99.90;;;;;;4968977;28;20041;-83
2023/05/26 02:53:47;;;;;;;21.40;5.72;;;6.20;99.90;;;;;;4987134;28;20040;-83
2023/05/26 02:56:12;;;;;;;38.08;7.35;;;6.30;99.90;;;;;;4969050;28;20063;-83
2023/05/26 02:58:38;;;;;;;28.33;6.97;;;6.70;99.90;;;;;;4950332;28;20042;-83
2023/05/26 03:01:04;;;;;;;26.00;5.60;;;6.10;99.90;;;;;;4986851;28;20511;-83
2023/05/26 03:03:32;;;;;;;32.60;7.40;;;6.10;99.90;;;;;;4983943;28;20073;-83
2023/05/26 03:05:58;;;;;;;31.83;6.40;;;6.10;99.90;;;;;;4973644;28;20052;-83
2023/05/26 03:08:24;;;;;;;38.40;6.45;;;6.10;99.90;;;;;;5005146;28;20046;-83
2023/05/26 03:10:50;;;;;;;25.60;6.10;;;6.10;99.90;;;;;;4990040;28;20559;-83
2023/05/26 03:13:16;;;;;;;27.20;6.25;;;6.10;99.90;;;;;;5004727;28;20411;-83
2023/05/26 03:15:43;;;;;;;29.10;5.95;;;6.10;99.90;;;;;;5008250;28;20092;-83
2023/05/26 03:18:08;;;;;;;25.08;5.65;;;6.10;99.90;;;;;;4963411;28;20049;-83
2023/05/26 03:20:34;;;;;;;30.08;6.85;;;6.10;99.90;;;;;;4971307;28;20360;-83
2023/05/26 03:23:00;;;;;;;29.80;5.93;;;6.10;99.90;;;;;;5007877;28;20049;-82
2023/05/26 03:25:25;;;;;;;23.15;5.20;;;6.10;99.90;;;;;;4995688;28;20033;-83
2023/05/26 03:27:51;;;;;;;29.30;6.68;;;6.10;99.90;;;;;;4992932;28;20042;-83
2023/05/26 03:30:17;;;;;;;30.00;5.53;;;6.00;99.90;;;;;;4965478;28;20034;-83
2023/05/26 03:32:42;;;;;;;29.98;5.95;;;6.00;99.90;;;;;;4994519;28;20037;-83
2023/05/26 03:35:08;;;;;;;32.13;6.35;;;6.00;99.90;;;;;;4999830;28;20044;-83
2023/05/26 03:37:34;;;;;;;28.80;6.07;;;6.00;99.90;;;;;;4997737;28;20061;-83
2023/05/26 03:40:00;;;;;;;27.25;6.53;;;6.00;99.90;;;;;;5013423;28;20128;-83
2023/05/26 03:42:25;;;;;;;37.30;7.07;;;6.50;99.90;;;;;;4991180;28;20543;-83
2023/05/26 03:44:51;;;;;;;24.20;5.70;;;6.10;99.90;;;;;;4991590;28;20619;-83
2023/05/26 03:47:17;;;;;;;22.10;5.55;;;6.00;99.90;;;;;;4981685;28;20065;-85
2023/05/26 03:49:42;;;;;;;32.40;6.82;;;6.10;99.90;;;;;;5004608;28;20033;-82
2023/05/26 03:52:08;;;;;;;28.02;5.53;;;6.00;99.90;;;;;;4979750;28;20117;-83
2023/05/26 03:54:34;;;;;;;27.60;7.10;;;6.00;99.90;;;;;;4973407;28;20478;-82
2023/05/26 03:57:00;;;;;;;24.58;6.57;;;6.00;99.90;;;;;;4993226;28;20057;-83
2023/05/26 03:59:26;;;;;;;23.30;6.03;;;6.10;99.90;;;;;;4965158;28;20095;-83
2023/05/26 04:01:52;;;;;;;27.13;6.05;;;6.10;99.90;;;;;;4975945;28;20057;-83
2023/05/26 04:04:17;;;;;;;24.33;5.90;;;6.10;99.90;;;;;;4992486;28;20061;-83
2023/05/26 04:06:43;;;;;;;32.72;7.97;;;6.10;99.90;;;;;;4991927;28;20042;-82
2023/05/26 04:09:09;;;;;;;28.80;5.75;;;6.10;99.90;;;;;;4963927;28;20040;-82
2023/05/26 04:11:35;;;;;;;31.65;7.40;;;6.20;99.90;;;;;;4972731;28;20163;-82
2023/05/26 04:14:01;;;;;;;24.98;6.97;;;6.10;99.90;;;;;;4993824;28;20052;-82
2023/05/26 04:16:26;;;;;;;26.13;6.32;;;6.10;99.90;;;;;;4970849;28;20038;-82
2023/05/26 04:18:52;;;;;;;30.17;6.88;;;6.10;99.90;;;;;;5001091;28;20039;-83
2023/05/26 04:21:18;;;;;;;25.83;6.03;;;6.10;99.90;;;;;;4977639;28;20054;-83
2023/05/26 04:23:47;;;;;;;27.42;7.32;;;6.20;99.90;;;;;;5002652;28;20049;-83
2023/05/26 04:26:13;;;;;;;27.23;6.00;;;6.70;99.90;;;;;;4973081;28;20038;-83
2023/05/26 04:28:39;;;;;;;28.52;7.40;;;6.20;99.90;;;;;;5011039;28;20070;-83
2023/05/26 04:31:04;;;;;;;23.65;6.63;;;6.50;99.90;;;;;;4982422;28;20056;-83
2023/05/26 04:33:30;;;;;;;31.95;7.20;;;6.30;99.90;;;;;;4990404;28;20411;-82
2023/05/26 04:35:56;;;;;;;28.63;6.38;;;6.30;99.90;;;;;;5006576;28;20754;-83
2023/05/26 04:38:22;;;;;;;30.67;6.68;;;6.30;99.90;;;;;;4962325;28;20128;-83
2023/05/26 04:40:48;;;;;;;28.35;6.53;;;6.40;99.90;;;;;;4992444;28;20038;-83
2023/05/26 04:43:14;;;;;;;28.73;6.97;;;6.40;99.90;;;;;;4999911;28;20063;-82
2023/05/26 04:45:42;;;;;;;33.92;7.53;;;6.50;99.90;;;;;;4994315;28;20048;-82
2023/05/26 04:48:08;;;;;;;27.98;6.75;;;6.50;99.90;;;;;;5006289;28;20029;-82
2023/05/26 04:50:38;;;;;;;26.30;6.05;;;6.60;99.90;;;;;;4992623;28;20160;-82
2023/05/26 04:53:05;;;;;;;28.08;6.70;;;6.60;99.90;;;;;;5003144;28;20056;-82
2023/05/26 04:55:30;;;;;;;32.25;6.57;;;6.60;99.90;;;;;;4994955;28;20121;-82
2023/05/26 04:57:56;;;;;;;22.17;6.05;;;6.70;99.90;;;;;;4989645;28;20120;-83
2023/05/26 05:00:22;;;;;;;28.60;6.82;;;6.80;99.90;;;;;;4976761;28;20046;-82
2023/05/26 05:02:48;;;;;;;30.65;6.18;;;6.90;99.90;;;;;;4975475;28;20052;-83
2023/05/26 05:05:13;;;;;;;29.15;6.47;;;7.00;99.90;;;;;;4969072;28;20050;-83
2023/05/26 05:07:39;;;;;;;33.25;6.50;;;7.10;99.90;;;;;;4990778;28;20535;-82
2023/05/26 05:10:06;;;;;;;24.52;5.88;;;7.10;99.90;;;;;;4974593;28;20060;-82
2023/05/26 05:12:32;;;;;;;31.25;6.32;;;7.20;99.90;;;;;;5003659;28;20038;-82
2023/05/26 05:14:57;;;;;;;27.65;6.93;;;7.20;99.90;;;;;;4997868;28;20048;-82
2023/05/26 05:17:23;;;;;;;26.60;6.47;;;7.30;99.90;;;;;;4975547;28;20037;-82
2023/05/26 05:19:49;;;;;;;34.67;6.97;;;7.40;99.90;;;;;;4976184;28;20051;-83
2023/05/26 05:22:14;;;;;;;30.65;6.50;;;7.50;99.90;;;;;;4976366;28;20568;-83
2023/05/26 05:24:40;;;;;;;26.48;6.05;;;7.60;99.90;;;;;;4975472;28;20079;-83
2023/05/26 05:27:06;;;;;;;36.08;5.38;;;7.70;99.90;;;;;;4974122;28;20056;-83
2023/05/26 05:29:31;;;;;;;26.30;5.82;;;7.70;99.90;;;;;;4993111;28;20033;-83
2023/05/26 05:31:57;;;;;;;34.50;6.10;;;7.80;99.90;;;;;;4989708;28;20542;-83
2023/05/26 05:34:23;;;;;;;21.08;5.85;;;7.90;99.90;;;;;;4975642;28;20338;-83
2023/05/26 05:36:49;;;;;;;24.75;5.57;;;8.00;99.90;;;;;;4986897;28;20045;-82
2023/05/26 05:39:14;;;;;;;31.38;6.35;;;8.10;99.90;;;;;;4976059;28;20111;-82
2023/05/26 05:41:40;;;;;;;30.70;6.03;;;8.20;99.90;;;;;;4976151;28;20042;-82
2023/05/26 05:44:06;;;;;;;21.90;5.78;;;8.30;99.90;;;;;;4985631;28;20042;-82
2023/05/26 05:46:31;;;;;;;29.65;5.55;;;8.40;99.90;;;;;;4989859;28;20515;-82
2023/05/26 05:48:57;;;;;;;24.42;5.80;;;8.50;99.90;;;;;;5005988;28;20034;-83
2023/05/26 05:51:23;;;;;;;31.35;5.20;;;8.60;99.90;;;;;;4982165;28;20504;-82
2023/05/26 05:53:48;;;;;;;23.27;5.07;;;8.70;99.90;;;;;;4991019;28;20046;-83
2023/05/26 05:56:14;;;;;;;19.88;4.88;;;8.90;99.90;;;;;;4978427;28;20073;-83
2023/05/26 05:58:40;;;;;;;26.92;5.05;;;9.00;99.90;;;;;;4982186;28;20124;-83
2023/05/26 06:01:07;;;;;;;22.38;5.35;;;9.20;99.90;;;;;;4994537;28;20049;-82
2023/05/26 06:03:32;;;;;;;28.52;6.05;;;9.30;99.90;;;;;;4975662;28;20069;-83
2023/05/26 06:05:58;;;;;;;25.55;4.78;;;9.40;99.90;;;;;;4995610;28;20410;-82
2023/05/26 06:08:24;;;;;;;28.30;5.93;;;9.50;99.90;;;;;;5001985;28;20078;-82
2023/05/26 06:10:49;;;;;;;27.52;5.20;;;9.60;99.90;;;;;;4994025;28;20371;-83
2023/05/26 06:13:15;;;;;;;21.48;5.18;;;9.70;99.90;;;;;;5004192;28;20045;-83
2023/05/26 06:15:41;;;;;;;23.75;5.43;;;9.70;99.90;;;;;;4988685;28;20042;-82
2023/05/26 06:18:06;;;;;;;21.08;5.80;;;9.70;99.90;;;;;;4997773;28;20163;-82
2023/05/26 06:20:32;;;;;;;18.17;4.60;;;9.80;99.90;;;;;;5002178;28;20072;-82
2023/05/26 06:22:58;;;;;;;25.42;5.47;;;9.80;99.90;;;;;;4960136;28;20491;-82
2023/05/26 06:25:24;;;;;;;28.75;5.90;;;9.80;99.90;;;;;;5003706;28;20181;-83
2023/05/26 06:27:49;;;;;;;26.88;5.05;;;9.90;99.90;;;;;;4987853;28;20041;-82
2023/05/26 06:30:15;;;;;;;26.98;5.47;;;9.90;99.90;;;;;;4990165;28;20045;-83
2023/05/26 06:32:41;;;;;;;22.95;4.40;;;10.00;99.90;;;;;;4996311;28;20041;-83
2023/05/26 06:35:07;;;;;;;22.30;5.35;;;10.10;99.90;;;;;;5025291;28;20037;-84
2023/05/26 06:37:33;;;;;;;25.23;5.35;;;10.20;99.90;;;;;;5005947;28;20116;-84
2023/05/26 06:39:58;;;;;;;24.83;5.25;;;10.20;99.90;;;;;;4974183;28;20120;-83
2023/05/26 06:42:24;;;;;;;21.50;4.70;;;10.30;99.90;;;;;;4975260;28;20049;-82
2023/05/26 06:44:50;;;;;;;27.40;5.90;;;10.40;99.90;;;;;;4987697;28;20531;-82
2023/05/26 06:47:18;;;;;;;25.92;5.10;;;10.50;99.90;;;;;;5001255;28;20060;-83
2023/05/26 06:49:44;;;;;;;17.38;4.60;;;10.50;99.90;;;;;;4985517;28;20057;-84
2023/05/26 06:52:10;;;;;;;33.10;5.75;;;10.60;99.90;;;;;;5005640;28;20038;-84
2023/05/26 06:54:35;;;;;;;23.95;5.50;;;10.60;99.90;;;;;;5010845;28;20068;-84
2023/05/26 06:57:02;;;;;;;21.63;5.45;;;10.70;99.90;;;;;;5016172;28;20037;-83
2023/05/26 06:59:28;;;;;;;20.90;4.88;;;10.80;99.90;;;;;;4986530;28;20042;-84
2023/05/26 07:01:54;;;;;;;20.00;5.22;;;10.80;99.90;;;;;;5006625;28;20034;-88
2023/05/26 07:04:20;;;;;;;16.02;4.70;;;11.00;99.90;;;;;;5041024;28;20569;-85
2023/05/26 07:06:46;;;;;;;19.55;4.68;;;11.20;99.90;;;;;;5026924;28;20104;-84
2023/05/26 07:09:12;;;;;;;18.23;4.18;;;11.40;99.90;;;;;;5031853;28;20030;-85
2023/05/26 07:11:37;;;;;;;22.38;4.60;;;11.70;99.90;;;;;;4988716;28;20034;-86
2023/05/26 07:14:03;;;;;;;17.65;4.38;;;11.90;99.90;;;;;;4998520;28;20049;-83
2023/05/26 07:16:29;;;;;;;23.40;5.43;;;12.00;99.90;;;;;;5007980;28;20057;-84
2023/05/26 07:18:55;;;;;;;23.17;4.30;;;12.00;99.90;;;;;;5000413;28;20029;-82
2023/05/26 07:21:22;;;;;;;24.92;5.07;;;12.10;99.90;;;;;;4982289;28;20038;-82
2023/05/26 07:23:48;;;;;;;24.88;5.43;;;12.20;99.90;;;;;;4977121;28;20422;-85
2023/05/26 07:26:14;;;;;;;19.83;4.57;;;12.20;99.90;;;;;;5015049;28;20329;-85
2023/05/26 07:28:41;;;;;;;14.57;4.82;;;12.30;99.90;;;;;;4999134;28;20516;-84
2023/05/26 07:31:07;;;;;;;15.38;4.68;;;12.30;99.90;;;;;;4982040;28;20048;-84
2023/05/26 07:33:33;;;;;;;16.38;4.38;;;12.40;99.90;;;;;;4993347;28;20033;-82
2023/05/26 07:35:59;;;;;;;13.30;4.53;;;12.60;99.90;;;;;;5005014;28;20048;-81
2023/05/26 07:38:24;;;;;;;18.02;5.20;;;12.90;99.90;;;;;;4984683;28;20041;-83
2023/05/26 07:40:51;;;;;;;19.23;5.07;;;13.10;99.90;;;;;;4985083;28;20030;-84
2023/05/26 07:43:17;;;;;;;19.10;4.57;;;13.10;99.90;;;;;;4984438;28;20458;-84
2023/05/26 07:45:43;;;;;;;23.35;5.13;;;13.00;99.90;;;;;;5010247;28;20038;-86
2023/05/26 07:48:08;;;;;;;16.23;4.72;;;13.00;99.90;;;;;;4997539;28;20118;-84
2023/05/26 07:50:34;;;;;;;19.95;4.65;;;12.90;99.90;;;;;;5003855;28;20066;-84
2023/05/26 07:53:00;;;;;;;25.20;5.07;;;12.90;99.90;;;;;;4984507;28;20071;-83
2023/05/26 07:55:26;;;;;;;18.08;5.47;;;13.10;99.90;;;;;;4984359;28;20049;-85
2023/05/26 07:57:52;;;;;;;18.10;5.15;;;13.30;99.90;;;;;;5012717;28;20042;-83
2023/05/26 08:00:18;;;;;;;18.50;4.50;;;13.40;99.90;;;;;;4998531;28;20036;-83
2023/05/26 08:02:43;;;;;;;18.75;4.55;;;13.60;99.90;;;;;;4977975;28;20041;-83
2023/05/26 08:05:09;;;;;;;17.27;4.68;;;13.80;99.90;;;;;;5015987;28;20499;-83
2023/05/26 08:07:35;;;;;;;17.55;5.13;;;13.80;99.90;;;;;;4975408;28;20073;-83
2023/05/26 08:10:00;;;;;;;20.75;5.07;;;13.90;99.90;;;;;;5020285;28;20117;-82
2023/05/26 08:12:26;;;;;;;22.10;5.20;;;13.80;99.90;;;;;;5009627;28;20612;-81
2023/05/26 08:14:52;;;;;;;25.45;5.30;;;13.90;99.90;;;;;;4998027;28;20041;-81
2023/05/26 08:17:18;;;;;;;20.52;4.82;;;14.00;99.90;;;;;;4965331;28;20509;-82
2023/05/26 08:19:43;;;;;;;17.67;3.90;;;14.10;99.90;;;;;;5030338;28;20041;-82
2023/05/26 08:22:09;;;;;;;20.70;5.28;;;14.00;99.90;;;;;;4997362;28;20122;-81
2023/05/26 08:24:35;;;;;;;17.27;4.63;;;14.10;99.90;;;;;;4999623;28;20040;-82
2023/05/26 08:27:00;;;;;;;17.75;4.18;;;14.20;99.90;;;;;;5007202;28;20087;-82
2023/05/26 08:29:26;;;;;;;17.38;4.40;;;14.20;99.90;;;;;;4997118;28;20042;-82
2023/05/26 08:31:52;;;;;;;20.83;4.68;;;14.20;99.90;;;;;;5012713;28;20041;-82
2023/05/26 08:34:18;;;;;;;17.25;5.15;;;14.30;99.90;;;;;;4979820;28;20043;-82
2023/05/26 08:36:44;;;;;;;17.40;4.55;;;14.20;99.90;;;;;;4982263;28;20041;-82
2023/05/26 08:39:09;;;;;;;17.30;4.65;;;14.30;99.90;;;;;;4997627;28;20486;-81
2023/05/26 08:41:53;;;;;;;23.40;5.40;;;14.50;99.90;;;;;;4993751;28;20041;-81
2023/05/26 08:44:18;;;;;;;19.67;4.30;;;14.60;99.90;;;;;;5031814;28;20048;-81
2023/05/26 08:46:48;;;;;;;14.60;4.25;;;14.90;99.90;;;;;;5025586;28;20041;-81
2023/05/26 08:49:17;;;;;;;14.30;4.22;;;15.20;99.90;;;;;;4992527;28;20485;-81
2023/05/26 08:51:46;;;;;;;13.68;4.60;;;15.40;99.90;;;;;;4978960;28;20034;-80
2023/05/26 08:54:12;;;;;;;18.60;4.72;;;15.40;99.90;;;;;;4997145;28;20085;-81
2023/05/26 08:56:38;;;;;;;12.27;4.38;;;15.30;99.90;;;;;;5014243;28;20131;-81
2023/05/26 08:59:08;;;;;;;14.13;4.10;;;15.20;99.00;;;;;;4995094;28;20149;-81
2023/05/26 09:01:34;;;;;;;14.23;3.85;;;15.30;99.70;;;;;;4995673;28;20125;-80
2023/05/26 09:04:00;;;;;;;19.00;4.15;;;15.40;99.20;;;;;;4979731;28;20499;-81
2023/05/26 09:06:26;;;;;;;21.00;4.80;;;15.40;99.10;;;;;;5011077;28;20062;-81
2023/05/26 09:08:53;;;;;;;12.80;3.88;;;15.20;98.80;;;;;;4963667;28;20041;-81
2023/05/26 09:11:23;;;;;;;23.52;4.63;;;15.20;99.20;;;;;;4975607;28;20033;-81
2023/05/26 09:13:53;;;;;;;15.70;4.07;;;15.40;99.70;;;;;;5010885;28;20070;-80
2023/05/26 09:16:22;;;;;;;19.13;4.93;;;15.60;99.30;;;;;;4990943;28;20048;-80
2023/05/26 09:18:48;;;;;;;16.95;4.18;;;15.40;98.50;;;;;;5028073;28;20064;-79
2023/05/26 09:21:15;;;;;;;17.38;4.03;;;15.40;98.40;;;;;;4978805;28;20665;-79
2023/05/26 09:23:44;;;;;;;14.50;4.50;;;15.60;98.70;;;;;;5010406;28;20073;-81
2023/05/26 09:26:10;;;;;;;10.50;4.00;;;15.80;98.90;;;;;;5010087;28;20029;-80
2023/05/26 09:28:36;;;;;;;31.15;4.68;;;16.00;98.20;;;;;;5011015;28;20494;-81
2023/05/26 09:31:09;;;;;;;18.52;4.10;;;16.00;97.70;;;;;;4976118;28;20037;-81
2023/05/26 09:33:46;;;;;;;21.05;3.70;;;16.10;97.70;;;;;;5025166;28;20042;-81
2023/05/26 09:36:14;;;;;;;11.80;3.78;;;16.30;97.40;;;;;;5009104;28;20076;-81
2023/05/26 09:38:42;;;;;;;13.30;4.05;;;16.50;97.20;;;;;;5029038;28;20431;-81
2023/05/26 09:41:07;;;;;;;18.88;4.80;;;16.70;96.90;;;;;;5006467;28;20069;-81
2023/05/26 09:43:34;;;;;;;14.70;4.43;;;16.80;96.70;;;;;;4995321;28;20071;-81
2023/05/26 09:46:00;;;;;;;13.63;4.78;;;16.90;96.40;;;;;;4985850;28;20049;-82
2023/05/26 09:48:26;;;;;;;13.43;4.53;;;17.00;96.70;;;;;;5005897;28;20042;-81
2023/05/26 09:50:52;;;;;;;17.73;4.95;;;17.10;96.20;;;;;;5004775;28;20418;-81
2023/05/26 09:53:18;;;;;;;17.02;5.03;;;17.20;95.90;;;;;;5012456;28;20546;-82
2023/05/26 09:55:45;;;;;;;24.42;4.93;;;17.30;95.80;;;;;;5010857;28;20041;-82
2023/05/26 09:58:12;;;;;;;16.52;4.78;;;17.40;95.20;;;;;;5004485;28;20171;-83
2023/05/26 10:00:43;;;;;;;17.35;4.80;;;17.30;94.30;;;;;;4980893;28;20037;-83
2023/05/26 10:03:10;;;;;;;14.27;4.25;;;17.40;93.90;;;;;;4981605;28;20406;-82
2023/05/26 10:05:46;;;;;;;12.20;3.58;;;17.10;93.80;;;;;;4986338;28;20053;-81
2023/05/26 10:08:17;;;;;;;16.45;4.35;;;17.10;93.70;;;;;;5011076;28;20057;-81
2023/05/26 10:10:44;;;;;;;13.55;3.67;;;17.10;93.60;;;;;;5008843;28;20133;-82
2023/05/26 10:13:11;;;;;;;14.50;3.70;;;17.30;93.80;;;;;;4975047;28;20038;-82
2023/05/26 10:15:37;;;;;;;13.13;4.05;;;17.40;94.30;;;;;;4992652;28;20491;-82
2023/05/26 10:18:03;;;;;;;11.07;3.67;;;17.40;93.70;;;;;;4994896;28;20056;-82
2023/05/26 10:20:31;;;;;;;10.85;3.72;;;17.70;93.60;;;;;;4993994;28;20042;-81
2023/05/26 10:23:02;;;;;;;13.32;3.83;;;17.80;92.20;;;;;;4978187;28;20041;-81
2023/05/26 10:25:43;;;;;;;13.52;4.07;;;17.80;92.60;;;;;;5007035;28;20038;-81
2023/05/26 10:28:27;;;;;;;13.27;3.42;;;17.90;92.30;;;;;;4977293;28;20030;-82
2023/05/26 10:31:01;;;;;;;10.77;3.50;;;17.90;92.40;;;;;;4993547;28;20456;-81
2023/05/26 10:33:57;;;;;;;10.30;3.50;;;17.70;91.30;;;;;;4992289;28;20041;-82
2023/05/26 10:36:23;;;;;;;19.15;4.50;;;18.00;91.80;;;;;;4999300;28;20192;-82
2023/05/26 10:38:52;;;;;;;10.65;3.85;;;18.00;91.50;;;;;;4977527;28;20122;-82
2023/05/26 10:41:36;;;;;;;13.10;4.18;;;18.10;91.90;;;;;;5007524;28;20129;-82
2023/05/26 10:44:03;;;;;;;11.13;3.40;;;17.90;90.00;;;;;;4985098;28;20045;-82
2023/05/26 10:46:37;;;;;;;9.65;3.00;;;17.90;90.70;;;;;;4991073;28;20095;-82
2023/05/26 10:49:03;;;;;;;12.75;3.85;;;18.00;90.90;;;;;;4992606;28;20399;-82
2023/05/26 10:51:33;;;;;;;10.48;3.83;;;18.10;91.00;;;;;;4993098;28;20038;-82
2023/05/26 10:54:18;;;;;;;13.98;3.35;;;18.20;90.90;;;;;;4992355;28;20050;-81
2023/05/26 10:56:48;;;;;;;11.07;3.65;;;18.10;89.80;;;;;;4985644;28;20049;-81
2023/05/26 10:59:22;;;;;;;15.63;4.05;;;18.00;90.80;;;;;;5009456;28;20096;-81
2023/05/26 11:01:52;;;;;;;15.90;3.85;;;18.20;90.60;;;;;;4995026;28;20419;-81
2023/05/26 11:04:18;;;;;;;10.70;3.03;;;18.20;90.40;;;;;;4997013;28;20046;-81
2023/05/26 11:06:58;;;;;;;10.38;3.65;;;18.20;90.70;;;;;;5015836;28;20537;-81
2023/05/26 11:09:27;;;;;;;10.98;3.85;;;18.30;90.60;;;;;;5002338;28;20049;-81
2023/05/26 11:11:57;;;;;;;12.35;3.17;;;18.40;90.80;;;;;;4998027;28;20034;-82
2023/05/26 11:14:29;;;;;;;8.95;3.10;;;18.40;90.10;;;;;;5009031;28;20041;-82
2023/05/26 11:17:00;;;;;;;12.90;3.58;;;18.40;88.10;;;;;;5010211;28;20889;-82
2023/05/26 11:19:34;;;;;;;10.30;3.40;;;18.30;89.10;;;;;;4995697;28;20549;-82
2023/05/26 11:22:02;;;;;;;12.05;3.40;;;18.20;88.70;;;;;;5000914;28;20101;-84
2023/05/26 11:24:29;;;;;;;12.48;3.40;;;18.10;87.20;;;;;;5013532;28;20152;-82
2023/05/26 11:26:55;;;;;;;11.43;3.70;;;18.30;88.20;;;;;;5009543;28;20045;-82
2023/05/26 11:29:25;;;;;;;9.05;3.53;;;18.50;90.20;;;;;;4995941;28;20038;-82
2023/05/26 11:31:51;;;;;;;13.20;4.10;;;18.40;89.60;;;;;;4993657;28;20046;-83
2023/05/26 11:34:17;;;;;;;14.88;4.32;;;18.50;88.10;;;;;;4976976;28;20594;-82
2023/05/26 11:36:48;;;;;;;13.80;3.78;;;18.40;88.40;;;;;;4991686;28;20046;-82
2023/05/26 11:39:14;;;;;;;9.68;3.95;;;18.70;89.10;;;;;;4993826;28;20034;-79
2023/05/26 11:41:41;;;;;;;10.20;3.80;;;18.80;87.30;;;;;;5021228;28;20041;-81
2023/05/26 11:44:15;;;;;;;9.57;3.42;;;18.70;87.80;;;;;;4977576;28;20410;-79
2023/05/26 11:46:42;;;;;;;14.50;4.78;;;18.80;88.30;;;;;;4978243;28;20129;-81
2023/05/26 11:49:17;;;;;;;9.23;3.10;;;18.80;88.40;;;;;;5015373;28;20120;-80
2023/05/26 11:51:51;;;;;;;13.23;4.07;;;18.80;88.00;;;;;;4985055;28;20101;-81
2023/05/26 11:54:18;;;;;;;11.48;3.70;;;18.90;88.60;;;;;;4995415;28;20037;-80
2023/05/26 11:56:45;;;;;;;11.93;3.88;;;18.80;87.60;;;;;;4981196;28;20519;-81
2023/05/26 11:59:19;;;;;;;21.33;3.75;;;18.90;87.00;;;;;;5010701;28;20073;-81
2023/05/26 12:01:46;;;;;;;9.93;3.75;;;18.90;86.10;;;;;;5009241;28;20053;-81
2023/05/26 12:04:12;;;;;;;10.00;3.10;;;18.80;88.00;;;;;;5007685;28;20053;-80
2023/05/26 12:06:41;;;;;;;13.38;3.85;;;18.80;86.20;;;;;;5012085;28;20057;-80
2023/05/26 12:09:19;;;;;;;13.05;3.30;;;18.90;87.70;;;;;;4999927;28;20053;-78
2023/05/26 12:11:47;;;;;;;11.65;3.63;;;18.90;86.40;;;;;;4996759;28;20037;-80
2023/05/26 12:14:13;;;;;;;11.68;3.42;;;18.80;88.60;;;;;;4978630;28;20038;-80
2023/05/26 12:16:43;;;;;;;8.65;3.67;;;18.80;87.30;;;;;;4990388;28;20046;-79
2023/05/26 12:19:10;;;;;;;10.85;3.55;;;18.80;88.00;;;;;;4977953;28;20426;-79
2023/05/26 12:21:45;;;;;;;14.35;4.38;;;18.90;87.30;;;;;;4974202;28;20096;-80
2023/05/26 12:24:12;;;;;;;14.18;4.10;;;18.90;87.00;;;;;;4992342;28;20178;-80
2023/05/26 12:26:38;;;;;;;11.98;3.83;;;18.70;86.80;;;;;;4998556;28;20407;-80
2023/05/26 12:29:26;;;;;;;12.02;3.75;;;18.80;87.50;;;;;;5004842;28;20510;-80
2023/05/26 12:31:52;;;;;;;13.85;4.05;;;18.80;87.20;;;;;;4986268;28;20457;-80
2023/05/26 12:34:20;;;;;;;11.10;4.10;;;18.90;86.90;;;;;;4986993;28;20084;-79
2023/05/26 12:36:47;;;;;;;10.90;4.05;;;19.10;87.30;;;;;;4975953;28;20553;-80
2023/05/26 12:39:14;;;;;;;8.85;3.97;;;19.10;87.20;;;;;;5005581;28;20686;-79
2023/05/26 12:41:40;;;;;;;12.27;4.15;;;19.10;86.10;;;;;;4977591;28;20078;-79
2023/05/26 12:44:07;;;;;;;12.02;3.80;;;19.30;88.20;;;;;;4979332;28;20049;-80